Time;durP1;ratioP1;P1;durP2;ratioP2;P2;SDS_P1;SDS_P2;PMS_P1;PMS_P2;Temp;Humidity;BMP_temperature;BMP_pressure;BME280_temperature;BME280_humidity;BME280_pressure;Samples;Min_cycle;Max_cycle;Signal;HPM_P1;HPM_P2
2022/09/20 00:01:07;;;;;;;;;;;14.00;99.90;;;;;;4897376;29;19916;-83
2022/09/20 00:03:37;;;;;;;;;;;14.00;99.90;;;;;;4896139;29;19916;-82
2022/09/20 00:06:04;;;;;;;;;;;14.00;99.90;;;;;;4895751;29;19915;-83
2022/09/20 00:08:29;;;;;;;;;;;14.00;99.90;;;;;;4897232;29;19918;-83
2022/09/20 00:11:01;;;;;;;;;;;14.00;99.90;;;;;;4896049;29;20456;-82
2022/09/20 00:13:27;;;;;;;;;;;14.00;99.90;;;;;;4896146;29;20027;-83
2022/09/20 00:15:52;;;;;;;;;;;14.00;99.90;;;;;;4895900;29;20636;-83
2022/09/20 00:18:18;;;;;;;;;;;14.00;99.90;;;;;;4895876;29;19954;-83
2022/09/20 00:20:47;;;;;;;;;;;14.10;99.90;;;;;;4896055;29;19975;-84
2022/09/20 00:23:12;;;;;;;;;;;14.10;99.90;;;;;;4897456;29;20355;-83
2022/09/20 00:25:38;;;;;;;;;;;14.10;99.90;;;;;;4897119;29;19918;-83
2022/09/20 00:28:04;;;;;;;;;;;14.10;99.90;;;;;;4895826;29;19943;-83
2022/09/20 00:30:31;;;;;;;;;;;14.10;99.90;;;;;;4895882;29;20003;-82
2022/09/20 00:32:56;;;;;;;;;;;14.10;99.90;;;;;;4896155;29;19912;-82
2022/09/20 00:35:21;;;;;;;;;;;14.10;99.90;;;;;;4895901;29;19915;-83
2022/09/20 00:37:47;;;;;;;;;;;14.10;99.90;;;;;;4895769;29;19967;-82
2022/09/20 00:40:14;;;;;;;;;;;14.10;99.90;;;;;;4895815;29;19933;-83
2022/09/20 00:42:40;;;;;;;;;;;14.10;99.90;;;;;;4897394;29;20356;-83
2022/09/20 00:45:12;;;;;;;;;;;14.10;99.90;;;;;;4895941;29;19939;-82
2022/09/20 00:47:37;;;;;;;;;;;14.10;99.90;;;;;;4896774;29;19926;-84
2022/09/20 00:50:16;;;;;;;;;;;14.10;99.90;;;;;;4896121;29;19915;-82
2022/09/20 00:52:42;;;;;;;;;;;14.20;99.90;;;;;;4895811;29;20117;-82
2022/09/20 00:55:09;;;;;;;;;;;14.10;99.90;;;;;;4895979;29;19911;-82
2022/09/20 00:57:35;;;;;;;;;;;14.20;99.90;;;;;;4895844;29;19951;-83
2022/09/20 01:00:05;;;;;;;;;;;14.20;99.90;;;;;;4895639;29;19923;-83
2022/09/20 01:02:32;;;;;;;;;;;14.20;99.90;;;;;;4895793;29;20376;-82
2022/09/20 01:04:58;;;;;;;;;;;14.20;99.90;;;;;;4897787;29;19927;-82
2022/09/20 01:07:23;;;;;;;;;;;14.10;99.90;;;;;;4899129;29;19912;-83
2022/09/20 01:09:49;;;;;;;;;;;14.10;99.90;;;;;;4900294;29;20287;-81
2022/09/20 01:12:19;;;;;;;;;;;14.10;99.90;;;;;;4900333;29;19911;-82
2022/09/20 01:14:46;;;;;;;;;;;14.10;99.90;;;;;;4899505;29;19912;-82
2022/09/20 01:17:12;;;;;;;;;;;14.10;99.90;;;;;;4900171;29;19912;-82
2022/09/20 01:19:56;;;;;;;;;;;14.10;99.90;;;;;;4899507;29;20309;-82
2022/09/20 01:22:28;;;;;;;;;;;14.10;99.90;;;;;;4919935;29;19922;-81
2022/09/20 01:25:00;;;;;;;;;;;14.10;99.90;;;;;;4901412;29;20395;-83
2022/09/20 01:27:34;;;;;;;;;;;14.10;99.90;;;;;;4899662;29;19990;-83
2022/09/20 01:30:03;;;;;;;;;;;14.10;99.90;;;;;;4901283;29;19911;-83
2022/09/20 01:32:40;;;;;;;;;;;14.10;99.90;;;;;;4899086;29;19915;-83
2022/09/20 01:35:07;;;;;;;;;;;14.10;99.90;;;;;;4898839;29;19918;-82
2022/09/20 01:37:37;;;;;;;;;;;14.10;99.90;;;;;;4899724;29;19916;-83
2022/09/20 01:40:09;;;;;;;;;;;14.10;99.90;;;;;;4898873;29;19930;-83
2022/09/20 01:42:41;;;;;;;;;;;14.10;99.90;;;;;;4898640;29;19951;-82
2022/09/20 01:45:17;;;;;;;;;;;14.10;99.90;;;;;;4899665;29;19918;-83
2022/09/20 01:47:47;;;;;;;;;;;14.20;99.90;;;;;;4898257;29;19919;-83
2022/09/20 01:50:40;;;;;;;;;;;14.20;99.90;;;;;;4898579;29;20312;-84
2022/09/20 01:53:21;;;;;;;;;;;14.20;99.90;;;;;;4899206;29;19911;-82
2022/09/20 01:56:06;;;;;;;;;;;14.20;99.90;;;;;;4898632;29;19915;-82
2022/09/20 01:58:54;;;;;;;;;;;14.20;99.90;;;;;;4900301;29;19920;-82
2022/09/20 02:01:31;;;;;;;;;;;14.10;99.90;;;;;;4907426;29;19918;-83
2022/09/20 02:04:12;;;;;;;;;;;14.10;99.90;;;;;;4899818;29;19912;-83
2022/09/20 02:06:38;;;;;;;;;;;14.10;99.90;;;;;;4899167;29;19919;-83
2022/09/20 02:09:15;;;;;;;;;;;14.10;99.90;;;;;;4899410;29;19912;-82
2022/09/20 02:11:59;;;;;;;;;;;14.10;99.90;;;;;;4898143;29;20005;-83
2022/09/20 02:14:51;;;;;;;;;;;14.10;99.90;;;;;;4898414;29;20360;-83
2022/09/20 02:17:26;;;;;;;;;;;14.10;99.90;;;;;;4897229;29;19919;-82
2022/09/20 02:19:52;;;;;;;;;;;14.10;99.90;;;;;;4898117;29;19919;-82
2022/09/20 02:22:17;;;;;;;;;;;14.00;99.90;;;;;;4899130;29;19963;-83
2022/09/20 02:25:01;;;;;;;;;;;14.10;99.90;;;;;;4897951;29;19954;-83
2022/09/20 02:27:46;;;;;;;;;;;14.10;99.90;;;;;;4897749;29;19931;-81
2022/09/20 02:30:11;;;;;;;;;;;14.20;99.90;;;;;;4898326;29;20336;-83
2022/09/20 02:32:43;;;;;;;;;;;14.20;99.90;;;;;;4897671;29;19912;-83
2022/09/20 02:35:08;;;;;;;;;;;14.20;99.90;;;;;;4897747;29;19912;-84
2022/09/20 02:37:49;;;;;;;;;;;14.20;99.90;;;;;;4897497;29;19934;-83
2022/09/20 02:40:17;;;;;;;;;;;14.20;99.90;;;;;;4898889;29;19915;-84
2022/09/20 02:42:50;;;;;;;;;;;14.20;99.90;;;;;;4897700;29;19912;-83
2022/09/20 02:45:26;;;;;;;;;;;14.20;99.90;;;;;;4897434;29;19912;-83
2022/09/20 02:47:52;;;;;;;;;;;14.20;99.90;;;;;;4898417;29;19924;-83
2022/09/20 02:50:30;;;;;;;;;;;14.20;99.90;;;;;;4897387;29;19915;-82
2022/09/20 02:52:55;;;;;;;;;;;14.20;99.90;;;;;;4897483;29;19918;-83
2022/09/20 02:55:43;;;;;;;;;;;14.20;99.90;;;;;;4897472;29;19920;-84
2022/09/20 02:58:24;;;;;;;;;;;14.20;99.90;;;;;;4897393;29;19915;-83
2022/09/20 03:00:52;;;;;;;;;;;14.20;99.90;;;;;;4898507;29;19922;-83
2022/09/20 03:03:36;;;;;;;;;;;14.20;99.90;;;;;;4897209;29;19918;-82
2022/09/20 03:06:11;;;;;;;;;;;14.20;99.90;;;;;;4898208;29;19938;-82
2022/09/20 03:08:55;;;;;;;;;;;14.20;99.90;;;;;;4897038;29;19963;-82
2022/09/20 03:11:27;;;;;;;;;;;14.20;99.90;;;;;;4897503;29;19911;-82
2022/09/20 03:14:08;;;;;;;;;;;14.30;99.90;;;;;;4897158;29;19967;-83
2022/09/20 03:16:53;;;;;;;;;;;14.20;99.90;;;;;;4896853;29;19912;-84
2022/09/20 03:19:32;;;;;;;;;;;14.20;99.90;;;;;;4896940;29;19923;-83
2022/09/20 03:22:09;;;;;;;;;;;14.30;99.90;;;;;;4898480;29;19911;-84
2022/09/20 03:24:47;;;;;;;;;;;14.20;99.90;;;;;;4897180;29;19992;-82
2022/09/20 03:27:15;;;;;;;;;;;14.20;99.90;;;;;;4898130;29;19981;-83
2022/09/20 03:30:00;;;;;;;;;;;14.20;99.90;;;;;;4897772;29;20284;-83
2022/09/20 03:32:50;;;;;;;;;;;14.20;99.90;;;;;;4898511;29;19912;-83
2022/09/20 03:35:22;;;;;;;;;;;14.20;99.90;;;;;;4897229;29;19963;-83
2022/09/20 03:37:47;;;;;;;;;;;14.20;99.90;;;;;;4896853;29;20380;-83
2022/09/20 03:40:18;;;;;;;;;;;14.20;99.90;;;;;;4898606;29;19926;-84
2022/09/20 03:42:47;;;;;;;;;;;14.20;99.90;;;;;;4898810;29;19918;-84
2022/09/20 03:45:27;;;;;;;;;;;14.20;99.90;;;;;;4897631;29;19923;-83
2022/09/20 03:48:15;;;;;;;;;;;14.20;99.90;;;;;;4896706;29;20292;-83
2022/09/20 03:50:54;;;;;;;;;;;14.30;99.90;;;;;;4897387;29;20465;-85
2022/09/20 03:53:39;;;;;;;;;;;14.30;99.90;;;;;;4897336;29;19915;-84
2022/09/20 03:56:20;;;;;;;;;;;14.20;99.90;;;;;;4897998;29;20319;-82
2022/09/20 03:58:55;;;;;;;;;;;14.20;99.90;;;;;;4897368;29;19922;-81
2022/09/20 04:01:26;;;;;;;;;;;14.30;99.90;;;;;;4898984;29;20272;-84
2022/09/20 04:03:56;;;;;;;;;;;14.30;99.90;;;;;;4897715;29;19915;-82
2022/09/20 04:06:21;;;;;;;;;;;14.20;99.90;;;;;;4898461;29;20015;-84
2022/09/20 04:09:13;;;;;;;;;;;14.20;99.90;;;;;;4897632;29;19915;-84
2022/09/20 04:11:58;;;;;;;;;;;14.30;99.90;;;;;;4897461;29;19918;-85
2022/09/20 04:14:30;;;;;;;;;;;14.30;99.90;;;;;;4898249;29;20000;-83
2022/09/20 04:17:14;;;;;;;;;;;14.30;99.90;;;;;;4896325;29;20003;-84
2022/09/20 04:19:50;;;;;;;;;;;14.20;99.90;;;;;;4896821;29;19915;-84
2022/09/20 04:22:18;;;;;;;;;;;14.20;99.90;;;;;;4897785;29;19912;-83
2022/09/20 04:24:59;;;;;;;;;;;14.30;99.90;;;;;;4898047;29;19950;-84
2022/09/20 04:27:28;;;;;;;;;;;14.30;99.90;;;;;;4896866;29;20368;-83
2022/09/20 04:29:57;;;;;;;;;;;14.20;99.90;;;;;;4898896;29;19962;-83
2022/09/20 04:32:22;;;;;;;;;;;14.20;99.90;;;;;;4897498;29;19967;-83
2022/09/20 04:37:37;;;;;;;;;;;14.20;99.90;;;;;;4897198;29;19960;-82
2022/09/20 04:40:13;;;;;;;;;;;14.20;99.90;;;;;;4899469;29;19919;-82
2022/09/20 04:42:40;;;;;;;;;;;14.20;99.90;;;;;;4899485;29;19946;-82
2022/09/20 04:45:07;;;;;;;;;;;14.10;99.90;;;;;;4899430;29;19919;-82
2022/09/20 04:48:08;;;;;;;;;;;14.20;99.90;;;;;;4898965;29;19919;-82
2022/09/20 04:50:36;;;;;;;;;;;14.10;99.90;;;;;;4901344;29;20398;-82
2022/09/20 04:53:17;;;;;;;;;;;14.10;99.90;;;;;;4899241;29;20257;-82
2022/09/20 04:55:47;;;;;;;;;;;14.10;99.90;;;;;;4900322;29;19912;-82
2022/09/20 04:58:35;;;;;;;;;;;14.10;99.90;;;;;;4899621;29;20571;-82
2022/09/20 05:01:15;;;;;;;;;;;14.10;99.90;;;;;;4899607;29;19915;-81
2022/09/20 05:03:59;;;;;;;;;;;14.10;99.90;;;;;;4899151;29;19915;-82
2022/09/20 05:06:40;;;;;;;;;;;14.00;99.90;;;;;;4898733;29;20003;-82
2022/09/20 05:09:24;;;;;;;;;;;14.00;99.90;;;;;;4899057;29;19980;-82
2022/09/20 05:11:49;;;;;;;;;;;14.00;99.90;;;;;;4899019;29;19955;-82
2022/09/20 05:14:24;;;;;;;;;;;14.00;99.90;;;;;;4898922;29;19962;-82
2022/09/20 05:17:09;;;;;;;;;;;14.00;99.90;;;;;;4898756;29;19912;-82
2022/09/20 05:19:43;;;;;;;;;;;14.00;99.90;;;;;;4898833;29;19919;-82
2022/09/20 05:22:28;;;;;;;;;;;14.00;99.90;;;;;;4900075;29;19943;-82
2022/09/20 05:24:57;;;;;;;;;;;14.00;99.90;;;;;;4900250;29;19915;-82
2022/09/20 05:27:22;;;;;;;;;;;14.00;99.90;;;;;;4898433;29;19911;-82
2022/09/20 05:29:56;;;;;;;;;;;14.00;99.90;;;;;;4899921;29;20006;-82
2022/09/20 05:32:24;;;;;;;;;;;14.00;99.90;;;;;;4899882;29;19931;-82
2022/09/20 05:35:03;;;;;;;;;;;14.00;99.90;;;;;;4898758;29;20340;-82
2022/09/20 05:37:29;;;;;;;;;;;14.10;99.90;;;;;;4898273;29;20002;-82
2022/09/20 05:40:12;;;;;;;;;;;14.00;99.90;;;;;;4898425;29;20002;-82
2022/09/20 05:42:57;;;;;;;;;;;14.00;99.90;;;;;;4899728;29;20515;-83
2022/09/20 05:45:38;;;;;;;;;;;14.10;99.90;;;;;;4898385;29;19911;-82
2022/09/20 05:48:17;;;;;;;;;;;14.00;99.90;;;;;;4899476;29;20399;-83
2022/09/20 05:50:51;;;;;;;;;;;14.00;99.90;;;;;;4898513;29;19916;-82
2022/09/20 05:53:19;;;;;;;;;;;14.00;99.90;;;;;;4898170;29;19985;-82
2022/09/20 05:55:52;;;;;;;;;;;14.00;99.90;;;;;;4899281;29;19912;-82
2022/09/20 05:58:27;;;;;;;;;;;14.10;99.90;;;;;;4899422;29;20295;-82
2022/09/20 06:00:56;;;;;;;;;;;14.10;99.90;;;;;;4898438;29;19915;-83
2022/09/20 06:03:38;;;;;;;;;;;14.10;99.90;;;;;;4898167;29;19968;-83
2022/09/20 06:06:27;;;;;;;;;;;14.10;99.90;;;;;;4897742;29;19918;-83
2022/09/20 06:08:56;;;;;;;;;;;14.10;99.90;;;;;;4898076;29;19943;-83
2022/09/20 06:11:34;;;;;;;;;;;14.20;99.90;;;;;;4897982;29;19915;-83
2022/09/20 06:14:02;;;;;;;;;;;14.10;99.90;;;;;;4897977;29;19911;-83
2022/09/20 06:16:36;;;;;;;;;;;14.20;99.90;;;;;;4898283;29;20363;-83
2022/09/20 06:19:20;;;;;;;;;;;14.10;99.90;;;;;;4899420;29;19963;-83
2022/09/20 06:21:50;;;;;;;;;;;14.10;99.90;;;;;;4898379;29;19967;-83
2022/09/20 06:24:25;;;;;;;;;;;14.00;99.90;;;;;;4899034;29;19912;-83
2022/09/20 06:26:52;;;;;;;;;;;14.00;99.90;;;;;;4898712;29;19911;-83
2022/09/20 06:29:21;;;;;;;;;;;14.00;99.90;;;;;;4897712;29;19999;-83
2022/09/20 06:31:47;;;;;;;;;;;14.00;99.90;;;;;;4897582;29;19916;-84
2022/09/20 06:34:14;;;;;;;;;;;14.10;99.90;;;;;;4897559;29;19911;-83
2022/09/20 06:42:31;;;;;;;;;;;14.10;99.90;;;;;;4898661;29;19918;-84
2022/09/20 06:44:57;;;;;;;;;;;14.10;99.90;;;;;;4897353;29;20356;-84
2022/09/20 06:47:22;;;;;;;;;;;14.10;99.90;;;;;;4896863;29;20364;-84
2022/09/20 06:49:48;;;;;;;;;;;14.10;99.90;;;;;;4897189;29;20439;-83
2022/09/20 06:52:15;;;;;;;;;;;14.10;99.90;;;;;;4898425;29;19912;-83
2022/09/20 06:54:44;;;;;;;;;;;14.20;99.90;;;;;;4897187;29;19920;-83
2022/09/20 06:57:11;;;;;;;;;;;14.30;99.90;;;;;;4898287;29;19958;-84
2022/09/20 06:59:37;;;;;;;;;;;14.40;99.90;;;;;;4896932;29;20360;-84
2022/09/20 07:02:03;;;;;;;;;;;14.50;99.90;;;;;;4897980;29;20007;-83
2022/09/20 07:04:28;;;;;;;;;;;14.60;99.90;;;;;;4897021;29;20407;-83
2022/09/20 07:07:04;;;;;;;;;;;14.70;99.90;;;;;;4896813;29;19918;-84
2022/09/20 07:09:30;;;;;;;;;;;14.80;99.90;;;;;;4897020;29;19911;-83
2022/09/20 07:11:58;;;;;;;;;;;14.90;99.90;;;;;;4896954;29;19912;-83
2022/09/20 07:14:25;;;;;;;;;;;15.00;99.90;;;;;;4896858;29;19911;-86
2022/09/20 07:16:50;;;;;;;;;;;15.00;99.90;;;;;;4896668;29;19918;-84
2022/09/20 07:19:16;;;;;;;;;;;15.10;99.90;;;;;;4896744;29;20467;-84
2022/09/20 07:21:41;;;;;;;;;;;15.10;99.90;;;;;;4896812;29;19967;-84
2022/09/20 07:24:07;;;;;;;;;;;15.20;99.90;;;;;;4896842;29;19911;-83
2022/09/20 07:26:32;;;;;;;;;;;15.30;99.90;;;;;;4896356;29;20026;-83
2022/09/20 07:28:58;;;;;;;;;;;15.30;99.90;;;;;;4897877;29;19919;-84
2022/09/20 07:31:25;;;;;;;;;;;15.30;99.90;;;;;;4896544;29;19918;-83
2022/09/20 07:33:50;;;;;;;;;;;15.30;99.90;;;;;;4897782;29;19959;-85
2022/09/20 07:36:16;;;;;;;;;;;15.50;99.90;;;;;;4896277;29;19912;-83
2022/09/20 07:38:45;;;;;;;;;;;15.40;99.90;;;;;;4896483;29;19915;-83
2022/09/20 07:41:11;;;;;;;;;;;15.40;99.90;;;;;;4893617;29;19915;-87
2022/09/20 07:43:36;;;;;;;;;;;15.50;99.90;;;;;;4897775;29;19919;-85
2022/09/20 07:46:02;;;;;;;;;;;15.60;99.90;;;;;;4896074;29;20415;-86
2022/09/20 07:48:32;;;;;;;;;;;15.80;99.90;;;;;;4896344;29;20011;-85
2022/09/20 07:51:01;;;;;;;;;;;15.90;99.90;;;;;;4896351;29;19912;-84
2022/09/20 07:53:26;;;;;;;;;;;16.00;99.90;;;;;;4896149;29;19939;-85
2022/09/20 07:55:59;;;;;;;;;;;16.10;99.90;;;;;;4890537;29;20028;-86
2022/09/20 07:58:24;;;;;;;;;;;16.20;99.90;;;;;;4896246;29;19915;-87
2022/09/20 08:00:51;;;;;;;;;;;16.30;99.90;;;;;;4906569;29;20263;-88
2022/09/20 08:03:17;;;;;;;;;;;16.30;99.90;;;;;;4899978;29;19915;-89
2022/09/20 08:05:42;;;;;;;;;;;16.40;99.90;;;;;;4914953;29;19962;-87
2022/09/20 08:08:08;;;;;;;;;;;16.40;99.90;;;;;;4915159;29;19974;-86
2022/09/20 08:10:33;;;;;;;;;;;16.40;99.90;;;;;;4915104;29;19930;-86
2022/09/20 08:12:59;;;;;;;;;;;16.50;99.90;;;;;;4915206;29;20328;-88
2022/09/20 08:15:25;;;;;;;;;;;16.50;99.90;;;;;;4918324;29;20472;-87
2022/09/20 08:17:50;;;;;;;;;;;16.50;99.90;;;;;;4918432;29;20399;-88
2022/09/20 08:20:17;;;;;;;;;;;16.60;99.90;;;;;;4919181;29;19920;-89
2022/09/20 08:22:45;;;;;;;;;;;16.70;99.90;;;;;;4919694;29;19911;-88
2022/09/20 08:25:10;;;;;;;;;;;16.90;99.90;;;;;;4919539;29;19918;-88
2022/09/20 08:27:42;;;;;;;;;;;17.30;99.90;;;;;;4920709;29;20320;-89
2022/09/20 08:30:08;;;;;;;;;;;17.50;99.90;;;;;;4923323;29;19911;-88
2022/09/20 08:32:34;;;;;;;;;;;17.50;99.90;;;;;;4921706;29;19978;-88
2022/09/20 08:34:59;;;;;;;;;;;17.60;99.90;;;;;;4919222;29;20435;-89
2022/09/20 08:37:25;;;;;;;;;;;17.70;99.90;;;;;;4918932;29;19911;-89
2022/09/20 08:39:50;;;;;;;;;;;17.60;99.90;;;;;;4919136;29;19915;-87
2022/09/20 08:42:23;;;;;;;;;;;17.70;99.90;;;;;;4918438;29;19919;-88
2022/09/20 08:44:56;;;;;;;;;;;17.80;99.90;;;;;;4918944;29;20300;-90
2022/09/20 08:47:25;;;;;;;;;;;18.00;99.90;;;;;;4918163;29;20017;-90
2022/09/20 08:49:53;;;;;;;;;;;18.10;99.90;;;;;;4918830;29;19926;-89
2022/09/20 08:52:22;;;;;;;;;;;18.20;99.90;;;;;;4918841;29;19912;-89
2022/09/20 08:54:48;;;;;;;;;;;18.40;99.90;;;;;;4890143;29;19916;-84
2022/09/20 08:57:15;;;;;;;;;;;18.60;99.90;;;;;;4879917;29;20469;-84
2022/09/20 08:59:40;;;;;;;;;;;18.80;99.90;;;;;;4880470;29;19920;-83
2022/09/20 09:02:17;;;;;;;;;;;18.80;99.90;;;;;;4880656;29;19912;-84
2022/09/20 09:04:43;;;;;;;;;;;18.60;99.90;;;;;;4880280;29;19980;-83
2022/09/20 09:07:11;;;;;;;;;;;18.50;99.90;;;;;;4880391;29;19912;-85
2022/09/20 09:09:40;;;;;;;;;;;18.40;99.90;;;;;;4880181;29;19962;-84
2022/09/20 09:12:13;;;;;;;;;;;18.30;99.90;;;;;;4880330;29;19912;-85
2022/09/20 09:14:47;;;;;;;;;;;18.30;99.90;;;;;;4881504;29;19911;-83
2022/09/20 09:17:14;;;;;;;;;;;18.30;99.90;;;;;;4880006;29;19912;-83
2022/09/20 09:19:50;;;;;;;;;;;18.30;99.90;;;;;;4880008;29;19922;-83
2022/09/20 09:22:20;;;;;;;;;;;18.10;99.90;;;;;;4881534;29;19916;-83
2022/09/20 09:25:05;;;;;;;;;;;18.10;99.90;;;;;;4879820;29;20027;-83
2022/09/20 09:27:30;;;;;;;;;;;18.40;99.90;;;;;;4879788;29;19912;-83
2022/09/20 09:29:55;;;;;;;;;;;20.30;99.90;;;;;;4880080;29;19912;-83
2022/09/20 09:32:23;;;;;;;;;;;21.50;99.90;;;;;;4880104;29;20022;-83
2022/09/20 09:34:48;;;;;;;;;;;23.20;99.90;;;;;;4879863;29;19920;-83
2022/09/20 09:37:24;;;;;;;;;;;24.40;99.90;;;;;;4879747;29;20414;-83
2022/09/20 09:40:08;;;;;;;;;;;24.60;99.90;;;;;;4880250;29;19931;-82
2022/09/20 09:42:34;;;;;;;;;;;25.50;98.90;;;;;;4880002;29;19991;-83
2022/09/20 09:45:22;;;;;;;;;;;24.40;95.90;;;;;;4881173;29;19986;-83
2022/09/20 09:47:48;;;;;;;;;;;23.20;96.90;;;;;;4880908;29;19916;-85
2022/09/20 09:50:21;;;;;;;;;;;22.20;98.90;;;;;;4880000;29;19964;-83
2022/09/20 09:53:01;;;;;;;;;;;21.60;99.90;;;;;;4881022;29;20456;-84
2022/09/20 09:55:32;;;;;;;;;;;20.90;99.90;;;;;;4880026;29;19912;-84
2022/09/20 09:58:04;;;;;;;;;;;20.30;99.90;;;;;;4880976;29;20005;-84
2022/09/20 10:00:30;;;;;;;;;;;19.80;99.90;;;;;;4881085;29;19923;-84
2022/09/20 10:02:59;;;;;;;;;;;19.40;99.90;;;;;;4879849;29;19912;-84
2022/09/20 10:05:24;;;;;;;;;;;19.10;99.90;;;;;;4879567;29;20006;-84
2022/09/20 10:08:02;;;;;;;;;;;19.10;99.90;;;;;;4880709;29;19954;-84
2022/09/20 10:10:27;;;;;;;;;;;19.10;99.90;;;;;;4879593;29;19947;-84
2022/09/20 10:13:11;;;;;;;;;;;19.40;99.90;;;;;;4879492;29;19943;-85
2022/09/20 10:15:44;;;;;;;;;;;20.10;99.90;;;;;;4879503;29;19919;-84
2022/09/20 10:18:28;;;;;;;;;;;20.40;99.90;;;;;;4880542;29;19963;-85
2022/09/20 10:21:08;;;;;;;;;;;20.40;99.90;;;;;;4879089;29;19916;-84
2022/09/20 10:23:40;;;;;;;;;;;20.10;99.90;;;;;;4879385;29;19912;-85
2022/09/20 10:26:09;;;;;;;;;;;19.90;99.90;;;;;;4878987;29;19912;-84
2022/09/20 10:28:50;;;;;;;;;;;19.70;99.90;;;;;;4880928;29;19912;-84
2022/09/20 10:31:20;;;;;;;;;;;19.60;99.90;;;;;;4880961;29;19912;-87
2022/09/20 10:34:02;;;;;;;;;;;19.60;99.90;;;;;;4880442;29;20292;-83
2022/09/20 10:36:35;;;;;;;;;;;19.60;99.90;;;;;;4878398;29;19944;-85
2022/09/20 10:39:04;;;;;;;;;;;19.20;99.90;;;;;;4880409;29;19959;-84
2022/09/20 10:44:17;;;;;;;;;;;18.70;99.90;;;;;;4880254;29;19918;-83
2022/09/20 10:47:09;;;;;;;;;;;18.40;99.90;;;;;;4878748;29;19912;-85
2022/09/20 10:49:48;;;;;;;;;;;18.20;99.90;;;;;;4878687;29;20404;-83
2022/09/20 10:52:14;;;;;;;;;;;18.20;99.90;;;;;;4879193;29;20376;-85
2022/09/20 10:54:54;;;;;;;;;;;17.90;99.90;;;;;;4879115;29;19928;-84
2022/09/20 10:57:20;;;;;;;;;;;17.60;99.90;;;;;;4878764;29;19955;-86
2022/09/20 10:59:58;;;;;;;;;;;17.50;99.90;;;;;;4879024;29;20415;-86
2022/09/20 11:02:23;;;;;;;;;;;17.40;99.90;;;;;;4879125;29;19928;-85
2022/09/20 11:05:07;;;;;;;;;;;17.40;99.90;;;;;;4878829;29;19912;-84
2022/09/20 11:07:33;;;;;;;;;;;17.20;99.90;;;;;;4878572;29;20284;-84
2022/09/20 11:10:04;;;;;;;;;;;16.90;99.90;;;;;;4879755;29;19912;-83
2022/09/20 11:12:34;;;;;;;;;;;16.50;99.90;;;;;;4878724;29;19919;-83
2022/09/20 11:15:20;;;;;;;;;;;16.10;99.90;;;;;;4879840;29;19944;-85
2022/09/20 11:17:52;;;;;;;;;;;15.60;99.90;;;;;;4878331;29;20326;-84
2022/09/20 11:20:19;;;;;;;;;;;15.30;99.90;;;;;;4878423;29;19915;-84
2022/09/20 11:22:45;;;;;;;;;;;15.30;99.90;;;;;;4878260;29;20377;-84
2022/09/20 11:25:14;;;;;;;;;;;15.10;99.90;;;;;;4878337;29;20018;-84
2022/09/20 11:27:43;;;;;;;;;;;15.00;99.90;;;;;;4879281;29;19980;-84
2022/09/20 11:30:16;;;;;;;;;;;15.10;99.90;;;;;;4877917;29;19916;-84
2022/09/20 11:32:46;;;;;;;;;;;15.20;99.90;;;;;;4877998;29;19912;-84
2022/09/20 11:35:13;;;;;;;;;;;15.30;99.90;;;;;;4877943;29;20376;-84
2022/09/20 11:37:47;;;;;;;;;;;15.60;99.90;;;;;;4877965;29;19977;-84
2022/09/20 11:40:22;;;;;;;;;;;15.80;99.90;;;;;;4878976;29;20380;-84
2022/09/20 11:42:48;;;;;;;;;;;15.80;99.90;;;;;;4877855;29;20043;-84
2022/09/20 11:45:14;;;;;;;;;;;15.90;99.90;;;;;;4878588;29;20415;-84
2022/09/20 11:47:46;;;;;;;;;;;15.80;99.90;;;;;;4878352;29;19943;-85
2022/09/20 11:50:17;;;;;;;;;;;15.70;99.90;;;;;;4878423;29;19975;-84
2022/09/20 11:52:56;;;;;;;;;;;15.80;99.90;;;;;;4878732;29;19912;-84
2022/09/20 11:55:22;;;;;;;;;;;15.90;99.90;;;;;;4878787;29;19916;-84
2022/09/20 11:58:01;;;;;;;;;;;16.00;99.90;;;;;;4879959;29;19999;-84
2022/09/20 12:00:31;;;;;;;;;;;16.10;99.90;;;;;;4878762;29;19916;-83
2022/09/20 12:02:57;;;;;;;;;;;16.10;99.90;;;;;;4879416;29;19959;-84
2022/09/20 12:05:28;;;;;;;;;;;16.30;99.90;;;;;;4881304;29;19912;-84
2022/09/20 12:07:54;;;;;;;;;;;16.40;99.90;;;;;;4879498;29;19955;-83
2022/09/20 12:10:29;;;;;;;;;;;16.70;99.90;;;;;;4880490;29;19919;-84
2022/09/20 12:12:56;;;;;;;;;;;16.70;99.90;;;;;;4880199;29;19912;-84
2022/09/20 12:15:24;;;;;;;;;;;16.80;99.90;;;;;;4878283;29;19923;-84
2022/09/20 12:17:51;;;;;;;;;;;17.10;99.90;;;;;;4878053;29;20372;-83
2022/09/20 12:20:41;;;;;;;;;;;17.40;99.90;;;;;;4889411;29;19923;-87
2022/09/20 12:23:26;;;;;;;;;;;17.40;99.90;;;;;;4915658;29;19918;-86
2022/09/20 12:26:02;;;;;;;;;;;17.50;99.90;;;;;;4916856;29;19912;-86
2022/09/20 12:28:38;;;;;;;;;;;17.70;99.90;;;;;;4916164;29;20287;-86
2022/09/20 12:31:28;;;;;;;;;;;18.00;99.90;;;;;;4916850;29;19912;-87
2022/09/20 12:34:01;;;;;;;;;;;18.10;99.90;;;;;;4895876;29;19912;-87
2022/09/20 12:36:28;;;;;;;;;;;18.50;99.90;;;;;;4896485;29;20034;-87
2022/09/20 12:38:59;;;;;;;;;;;18.50;99.90;;;;;;4896984;29;19911;-87
2022/09/20 12:41:25;;;;;;;;;;;18.80;99.90;;;;;;4897908;29;19912;-86
2022/09/20 12:43:58;;;;;;;;;;;19.00;99.90;;;;;;4897389;29;19918;-86
2022/09/20 12:46:35;;;;;;;;;;;19.30;99.90;;;;;;4898627;29;20395;-84
2022/09/20 12:52:49;;;;;;;;;;;19.40;99.90;;;;;;4899876;29;19963;-85
2022/09/20 12:54:48;;;;;;;;;;;18.90;99.90;;;;;;4900239;29;20304;-84
2022/09/20 12:57:26;;;;;;;;;;;18.50;99.90;;;;;;4896397;29;20068;-86
2022/09/20 12:59:56;;;;;;;;;;;18.30;99.90;;;;;;4897097;29;19930;-85
2022/09/20 13:02:55;;;;;;;;;;;18.30;99.90;;;;;;4899366;29;19918;-87
2022/09/20 13:05:44;;;;;;;;;;;18.00;99.90;;;;;;4898998;29;19963;-86
2022/09/20 13:08:19;;;;;;;;;;;18.00;99.90;;;;;;4896552;29;19919;-85
2022/09/20 13:10:52;;;;;;;;;;;17.80;99.90;;;;;;4900292;29;19919;-86
2022/09/20 13:13:26;;;;;;;;;;;17.90;99.90;;;;;;4899271;29;19911;-86
2022/09/20 13:15:52;;;;;;;;;;;17.90;99.90;;;;;;4900008;29;19948;-86
2022/09/20 13:18:18;;;;;;;;;;;17.90;99.90;;;;;;4899129;29;20398;-87
2022/09/20 13:20:44;;;;;;;;;;;17.90;99.90;;;;;;4898745;29;19922;-87
2022/09/20 13:23:17;;;;;;;;;;;17.90;99.90;;;;;;4898988;29;19921;-88
2022/09/20 13:25:43;;;;;;;;;;;17.90;99.90;;;;;;4900360;29;20396;-88
2022/09/20 13:28:14;;;;;;;;;;;17.70;99.90;;;;;;4898878;29;19951;-86
2022/09/20 13:30:40;;;;;;;;;;;17.70;99.90;;;;;;4898981;29;19918;-87
2022/09/20 13:33:20;;;;;;;;;;;17.70;99.90;;;;;;4898738;29;19912;-88
2022/09/20 13:35:48;;;;;;;;;;;17.70;99.90;;;;;;4898631;29;20391;-87
2022/09/20 13:38:21;;;;;;;;;;;17.60;99.90;;;;;;4898876;29;19998;-87
2022/09/20 13:40:47;;;;;;;;;;;17.60;99.90;;;;;;4898577;29;19920;-87
2022/09/20 13:43:30;;;;;;;;;;;17.50;99.90;;;;;;4900105;29;19995;-86
2022/09/20 13:46:16;;;;;;;;;;;17.60;99.90;;;;;;4898972;29;19912;-91
2022/09/20 13:49:06;;;;;;;;;;;17.70;99.90;;;;;;4882044;29;19919;-90
2022/09/20 13:51:33;;;;;;;;;;;17.90;99.90;;;;;;4914344;29;19920;-89
2022/09/20 13:54:20;;;;;;;;;;;17.90;99.90;;;;;;4899015;29;20368;-90
2022/09/20 13:56:59;;;;;;;;;;;18.00;99.90;;;;;;4898776;29;19919;-91
2022/09/20 13:59:28;;;;;;;;;;;18.10;99.90;;;;;;4899061;29;19916;-90
2022/09/20 14:01:54;;;;;;;;;;;18.30;99.90;;;;;;4898490;29;20372;-85
2022/09/20 14:04:21;;;;;;;;;;;18.70;99.90;;;;;;4898266;29;19912;-86
2022/09/20 14:06:47;;;;;;;;;;;19.00;99.90;;;;;;4896566;29;20003;-87
2022/09/20 14:09:19;;;;;;;;;;;19.60;99.90;;;;;;4891110;29;20325;-87
2022/09/20 14:11:45;;;;;;;;;;;20.50;99.90;;;;;;4887343;29;20325;-86
2022/09/20 14:14:12;;;;;;;;;;;21.30;99.90;;;;;;4898718;29;20020;-86
2022/09/20 14:16:39;;;;;;;;;;;22.40;99.90;;;;;;4897950;29;19911;-86
2022/09/20 14:19:06;;;;;;;;;;;23.60;99.90;;;;;;4898514;29;20372;-88
2022/09/20 14:21:33;;;;;;;;;;;24.50;98.30;;;;;;4898040;29;19950;-90
2022/09/20 14:24:24;;;;;;;;;;;25.90;95.60;;;;;;4918143;29;20359;-89
2022/09/20 14:27:09;;;;;;;;;;;27.20;91.70;;;;;;4913920;29;19946;-90
2022/09/20 14:29:35;;;;;;;;;;;29.60;81.00;;;;;;4916284;29;19911;-89
2022/09/20 14:32:04;;;;;;;;;;;31.40;68.80;;;;;;4916452;29;19915;-89
2022/09/20 14:34:29;;;;;;;;;;;32.00;59.60;;;;;;4916148;29;19911;-89
2022/09/20 14:37:06;;;;;;;;;;;32.70;56.10;;;;;;4915841;29;20014;-91
2022/09/20 14:39:33;;;;;;;;;;;33.30;52.30;;;;;;4916423;29;19919;-90
2022/09/20 14:41:58;;;;;;;;;;;33.80;50.20;;;;;;4916369;29;19911;-88
2022/09/20 14:44:30;;;;;;;;;;;34.30;48.10;;;;;;4916244;29;19912;-91
2022/09/20 14:46:56;;;;;;;;;;;34.10;47.10;;;;;;4917206;29;19942;-89
2022/09/20 14:49:24;;;;;;;;;;;34.40;45.80;;;;;;4914222;29;19911;-90
2022/09/20 14:51:50;;;;;;;;;;;34.10;43.10;;;;;;4897631;29;19926;-89
2022/09/20 14:54:29;;;;;;;;;;;32.50;43.50;;;;;;4897396;29;19998;-88
2022/09/20 14:56:56;;;;;;;;;;;32.80;44.60;;;;;;4897198;29;19947;-89
2022/09/20 14:59:35;;;;;;;;;;;34.20;44.70;;;;;;4897527;29;19916;-88